createdAt,value
2019-04-16T00:01:01.618Z,90.70
2019-04-16T00:03:05.498Z,90.70
2019-04-16T00:05:10.962Z,90.90
2019-04-16T00:07:31.266Z,91.00
2019-04-16T00:09:42.456Z,90.90
2019-04-16T00:12:02.574Z,91.00
2019-04-16T00:14:22.746Z,91.10
2019-04-16T00:16:26.312Z,91.20
2019-04-16T00:18:29.958Z,91.30
2019-04-16T00:20:37.986Z,91.40
2019-04-16T00:23:00.533Z,91.20
2019-04-16T00:25:05.058Z,91.50
2019-04-16T00:27:08.630Z,91.50
2019-04-16T00:29:12.248Z,91.60
2019-04-16T00:31:15.811Z,91.70
2019-04-16T00:33:19.387Z,91.80
2019-04-16T00:35:23.050Z,91.60
2019-04-16T00:37:26.614Z,91.80
2019-04-16T00:39:30.232Z,92.00
2019-04-16T00:41:33.824Z,92.20
2019-04-16T00:43:37.402Z,91.90
2019-04-16T00:45:40.992Z,92.00
2019-04-16T00:47:44.553Z,91.90
2019-04-16T00:49:48.150Z,92.00
2019-04-16T00:51:51.794Z,91.90
2019-04-16T00:53:55.409Z,92.00
2019-04-16T00:55:59.012Z,92.00
2019-04-16T00:58:02.585Z,92.10
2019-04-16T01:00:07.536Z,92.00
2019-04-16T01:02:11.105Z,92.00
2019-04-16T01:04:14.669Z,92.20
2019-04-16T01:06:18.261Z,92.10
2019-04-16T01:08:21.895Z,92.00
2019-04-16T01:10:25.488Z,92.30
2019-04-16T01:12:29.119Z,92.20
2019-04-16T01:14:32.769Z,92.10
2019-04-16T01:16:36.345Z,92.30
2019-04-16T01:18:39.942Z,92.30
2019-04-16T01:20:44.033Z,92.10
2019-04-16T01:22:47.703Z,91.80
2019-04-16T01:24:52.576Z,92.10
2019-04-16T01:26:58.209Z,92.00
2019-04-16T01:29:04.164Z,91.80
2019-04-16T01:31:12.378Z,91.90
2019-04-16T01:33:33.898Z,91.80
2019-04-16T01:35:42.190Z,91.80
2019-04-16T01:38:03.485Z,91.80
2019-04-16T01:40:09.471Z,91.90
2019-04-16T01:42:13.101Z,91.90
2019-04-16T01:44:16.674Z,91.90
2019-04-16T01:46:20.264Z,91.80
2019-04-16T01:48:23.837Z,92.00
2019-04-16T01:50:27.481Z,91.90
2019-04-16T01:52:31.185Z,92.00
2019-04-16T01:54:34.753Z,92.00
2019-04-16T01:56:38.325Z,92.10
2019-04-16T01:58:41.924Z,92.20
2019-04-16T02:00:45.518Z,92.20
2019-04-16T02:02:49.117Z,92.30
2019-04-16T02:04:52.816Z,92.30
2019-04-16T02:06:57.279Z,92.20
2019-04-16T02:09:03.099Z,92.20
2019-04-16T02:11:09.815Z,92.20
2019-04-16T02:13:14.535Z,92.30
2019-04-16T02:15:21.605Z,92.30
2019-04-16T02:17:26.783Z,92.60
2019-04-16T02:19:32.323Z,92.60
2019-04-16T02:21:32.915Z,92.70
2019-04-16T02:23:36.490Z,92.70
2019-04-16T02:25:40.138Z,92.30
2019-04-16T02:27:43.710Z,92.00
2019-04-16T02:29:47.312Z,92.30
2019-04-16T02:31:51.746Z,91.90
2019-04-16T02:33:56.086Z,92.40
2019-04-16T02:35:59.660Z,91.80
2019-04-16T02:38:10.418Z,91.80
2019-04-16T02:40:16.355Z,92.00
2019-04-16T02:42:14.162Z,91.90
2019-04-16T02:44:17.759Z,92.10
2019-04-16T02:46:21.408Z,91.80
2019-04-16T02:48:24.983Z,91.40
2019-04-16T02:50:48.353Z,91.40
2019-04-16T02:53:02.497Z,91.90
2019-04-16T02:55:11.289Z,92.10
2019-04-16T02:57:28.597Z,92.10
2019-04-16T02:59:36.753Z,92.30
2019-04-16T03:01:58.265Z,92.60
2019-04-16T03:04:03.476Z,92.70
2019-04-16T03:06:07.155Z,93.00
2019-04-16T03:08:11.389Z,93.00
2019-04-16T03:10:15.105Z,92.90
2019-04-16T03:12:20.988Z,92.80
2019-04-16T03:14:24.253Z,92.70
2019-04-16T03:16:29.565Z,92.90
2019-04-16T03:18:34.801Z,92.70
2019-04-16T03:20:38.377Z,92.80
2019-04-16T03:22:42.028Z,92.60
2019-04-16T03:24:45.627Z,93.10
2019-04-16T03:26:50.422Z,93.00
2019-04-16T03:28:55.706Z,92.60
2019-04-16T03:30:59.666Z,92.60
2019-04-16T03:33:10.128Z,92.60
2019-04-16T03:35:08.623Z,92.40
2019-04-16T03:37:12.257Z,92.40
2019-04-16T03:39:16.058Z,92.30
2019-04-16T03:41:19.722Z,92.30
2019-04-16T03:43:23.461Z,92.50
2019-04-16T03:45:27.098Z,92.40
2019-04-16T03:47:30.666Z,92.40
2019-04-16T03:49:34.254Z,92.30
2019-04-16T03:51:37.845Z,92.20
2019-04-16T03:53:41.409Z,92.40
2019-04-16T03:55:44.985Z,92.30
2019-04-16T03:57:48.653Z,92.40
2019-04-16T03:59:52.304Z,92.50
2019-04-16T04:01:56.143Z,92.50
2019-04-16T04:03:59.849Z,92.20
2019-04-16T04:06:03.537Z,92.50
2019-04-16T04:08:08.673Z,92.50
2019-04-16T04:10:12.816Z,92.70
2019-04-16T04:12:16.449Z,92.60
2019-04-16T04:14:23.327Z,92.40
2019-04-16T04:16:25.397Z,92.40
2019-04-16T04:18:29.198Z,92.60
2019-04-16T04:20:32.769Z,92.30
2019-04-16T04:22:36.413Z,92.50
2019-04-16T04:24:39.985Z,92.10
2019-04-16T04:26:43.561Z,92.60
2019-04-16T04:28:48.636Z,92.60
2019-04-16T04:30:52.393Z,92.40
2019-04-16T04:32:56.009Z,92.70
2019-04-16T04:34:59.640Z,93.20
2019-04-16T04:37:03.292Z,93.10
2019-04-16T04:39:09.956Z,92.60
2019-04-16T04:41:12.094Z,92.50
2019-04-16T04:43:15.669Z,92.40
2019-04-16T04:45:19.260Z,92.40
2019-04-16T04:47:22.837Z,92.10
2019-04-16T04:49:29.998Z,92.10
2019-04-16T04:51:31.688Z,92.00
2019-04-16T04:53:35.244Z,92.20
2019-04-16T04:55:38.846Z,92.00
2019-04-16T04:57:42.413Z,91.80
2019-04-16T04:59:46.006Z,91.80
2019-04-16T05:01:49.573Z,91.70
2019-04-16T05:04:07.099Z,91.50
2019-04-16T05:06:15.077Z,91.50
2019-04-16T05:08:18.693Z,91.10
2019-04-16T05:10:23.521Z,91.40
2019-04-16T05:12:27.106Z,91.00
2019-04-16T05:14:30.716Z,91.40
2019-04-16T05:16:35.471Z,90.90
2019-04-16T05:18:41.742Z,91.00
2019-04-16T05:20:46.715Z,90.70
2019-04-16T05:22:50.589Z,90.70
2019-04-16T05:25:00.905Z,90.90
2019-04-16T05:26:59.996Z,90.60
2019-04-16T05:29:17.509Z,90.70
2019-04-16T05:31:18.085Z,90.50
2019-04-16T05:33:21.929Z,90.10
2019-04-16T05:35:25.533Z,90.00
2019-04-16T05:37:29.111Z,90.30
2019-04-16T05:39:33.040Z,90.20
2019-04-16T05:41:37.893Z,90.10
2019-04-16T05:43:41.455Z,90.00
2019-04-16T05:45:45.055Z,90.10
2019-04-16T05:47:49.079Z,90.00
2019-04-16T05:49:54.358Z,88.80
2019-04-16T05:52:02.934Z,89.00
2019-04-16T05:54:05.432Z,89.20
2019-04-16T05:56:20.263Z,87.90
2019-04-16T05:58:27.783Z,88.70
2019-04-16T06:00:38.655Z,88.30
2019-04-16T06:02:43.946Z,88.80
2019-04-16T06:04:47.515Z,89.20
2019-04-16T06:06:50.321Z,88.10
2019-04-16T06:08:56.117Z,87.80
2019-04-16T06:10:59.155Z,88.00
2019-04-16T06:13:04.362Z,87.40
2019-04-16T06:15:15.794Z,86.20
2019-04-16T06:17:37.217Z,86.30
2019-04-16T06:20:00.569Z,87.20
2019-04-16T06:22:05.857Z,88.50
2019-04-16T06:24:26.333Z,86.80
2019-04-16T06:26:34.296Z,87.10
2019-04-16T06:28:56.377Z,87.60
2019-04-16T06:31:10.507Z,87.20
2019-04-16T06:33:18.368Z,87.20
2019-04-16T06:35:23.579Z,87.20
2019-04-16T06:37:31.465Z,87.20
2019-04-16T06:39:42.351Z,87.00
2019-04-16T06:42:03.921Z,84.70
2019-04-16T06:44:14.727Z,86.00
2019-04-16T06:46:40.008Z,84.70
2019-04-16T06:48:51.109Z,85.90
2019-04-16T06:50:58.931Z,87.20
2019-04-16T06:53:04.166Z,86.00
2019-04-16T06:55:21.717Z,84.60
2019-04-16T06:57:27.398Z,85.90
2019-04-16T06:59:32.775Z,84.70
2019-04-16T07:01:54.574Z,84.80
2019-04-16T07:04:00.078Z,85.90
2019-04-16T07:06:22.299Z,83.50
2019-04-16T07:08:37.428Z,82.70
2019-04-16T07:10:44.679Z,81.70
2019-04-16T07:12:45.733Z,82.50
2019-04-16T07:14:51.221Z,83.30
2019-04-16T07:16:59.868Z,84.00
2019-04-16T07:19:00.041Z,80.90
2019-04-16T07:21:02.832Z,79.70
2019-04-16T07:23:06.408Z,79.00
2019-04-16T07:25:09.314Z,80.30
2019-04-16T07:27:12.967Z,78.30
2019-04-16T07:29:18.164Z,74.40
2019-04-16T07:31:33.477Z,74.60
2019-04-16T07:33:52.510Z,75.30
2019-04-16T07:36:00.246Z,75.10
2019-04-16T07:38:22.210Z,75.90
2019-04-16T07:40:27.487Z,74.60
2019-04-16T07:42:32.696Z,71.30
2019-04-16T07:44:55.550Z,70.90
2019-04-16T07:47:20.017Z,70.10
2019-04-16T07:49:40.891Z,69.40
2019-04-16T07:52:07.000Z,68.50
2019-04-16T07:54:09.534Z,69.20
2019-04-16T07:56:26.873Z,70.10
2019-04-16T07:58:30.449Z,70.30
2019-04-16T08:00:33.308Z,68.10
2019-04-16T08:02:36.948Z,67.30
2019-04-16T08:04:39.738Z,66.80
2019-04-16T08:06:46.259Z,66.80
2019-04-16T08:08:48.573Z,66.00
2019-04-16T08:10:51.421Z,64.60
2019-04-16T08:12:56.963Z,65.90
2019-04-16T08:15:13.846Z,64.60
2019-04-16T08:17:07.140Z,64.10
2019-04-16T08:19:12.203Z,65.00
2019-04-16T08:21:15.558Z,63.40
2019-04-16T08:23:38.951Z,64.00
2019-04-16T08:25:41.372Z,64.00
2019-04-16T08:27:46.987Z,64.60
2019-04-16T08:29:49.443Z,59.70
2019-04-16T08:31:52.273Z,59.60
2019-04-16T08:33:55.840Z,60.40
2019-04-16T08:35:58.618Z,59.30
2019-04-16T08:38:02.197Z,58.50
2019-04-16T08:40:08.824Z,58.70
2019-04-16T08:42:11.734Z,56.70
2019-04-16T08:44:14.509Z,58.40
2019-04-16T08:46:18.118Z,55.80
2019-04-16T08:48:20.920Z,56.20
2019-04-16T08:50:26.130Z,55.00
2019-04-16T08:52:29.736Z,57.40
2019-04-16T08:54:32.541Z,57.00
2019-04-16T08:56:36.182Z,57.10
2019-04-16T08:58:39.123Z,53.80
2019-04-16T09:00:46.435Z,55.80
2019-04-16T09:02:49.864Z,56.20
2019-04-16T09:04:52.686Z,56.10
2019-04-16T09:07:09.666Z,55.30
2019-04-16T09:09:12.502Z,54.80
2019-04-16T09:11:21.762Z,53.20
2019-04-16T09:13:21.035Z,53.30
2019-04-16T09:15:27.356Z,51.20
2019-04-16T09:17:32.941Z,54.90
2019-04-16T09:19:37.979Z,52.10
2019-04-16T09:21:44.155Z,52.70
2019-04-16T09:24:08.926Z,54.20
2019-04-16T09:26:15.047Z,53.10
2019-04-16T09:28:25.690Z,53.00
2019-04-16T09:30:25.045Z,51.00
2019-04-16T09:32:36.317Z,51.20
2019-04-16T09:34:47.448Z,50.20
2019-04-16T09:37:01.615Z,49.00
2019-04-16T09:39:27.633Z,47.90
2019-04-16T09:41:35.633Z,47.50
2019-04-16T09:43:46.786Z,48.50
2019-04-16T09:45:50.400Z,49.00
2019-04-16T09:47:53.207Z,48.40
2019-04-16T09:49:57.690Z,46.80
2019-04-16T09:52:02.481Z,47.40
2019-04-16T09:54:04.924Z,48.40
2019-04-16T09:56:29.573Z,48.90
2019-04-16T09:58:34.872Z,48.30
2019-04-16T10:00:41.041Z,49.60
2019-04-16T10:02:44.635Z,47.90
2019-04-16T10:04:47.431Z,48.90
2019-04-16T10:06:51.354Z,45.60
2019-04-16T10:08:56.642Z,47.30
2019-04-16T10:11:02.696Z,45.60
2019-04-16T10:13:05.604Z,45.30
2019-04-16T10:15:08.686Z,45.50
2019-04-16T10:17:12.328Z,44.60
2019-04-16T10:19:15.154Z,45.30
2019-04-16T10:21:19.656Z,45.40
2019-04-16T10:23:44.010Z,44.30
2019-04-16T10:25:47.632Z,46.00
2019-04-16T10:27:52.161Z,44.50
2019-04-16T10:29:55.735Z,43.00
2019-04-16T10:31:58.519Z,43.30
2019-04-16T10:34:02.182Z,44.20
2019-04-16T10:36:06.147Z,45.50
2019-04-16T10:38:14.424Z,45.70
2019-04-16T10:40:32.031Z,45.40
2019-04-16T10:42:37.245Z,45.20
2019-04-16T10:44:57.917Z,42.20
2019-04-16T10:47:19.792Z,42.60
2019-04-16T10:49:25.234Z,43.30
2019-04-16T10:51:30.537Z,43.10
2019-04-16T10:53:35.868Z,41.70
2019-04-16T10:55:57.501Z,41.80
2019-04-16T10:58:14.977Z,41.60
2019-04-16T11:00:38.775Z,43.40
2019-04-16T11:02:50.001Z,42.00
2019-04-16T11:05:07.572Z,41.30
2019-04-16T11:07:21.999Z,39.50
2019-04-16T11:09:25.599Z,41.30
2019-04-16T11:11:28.471Z,40.00
2019-04-16T11:13:36.607Z,39.90
2019-04-16T11:15:43.017Z,42.00
2019-04-16T11:17:48.628Z,40.90
2019-04-16T11:19:58.420Z,40.90
2019-04-16T11:22:05.654Z,40.10
2019-04-16T11:24:13.293Z,40.80
2019-04-16T11:26:19.452Z,40.50
2019-04-16T11:28:25.350Z,40.00
2019-04-16T11:30:38.785Z,40.50
2019-04-16T11:32:46.316Z,40.30
2019-04-16T11:34:52.809Z,41.20
2019-04-16T11:37:00.465Z,38.70
2019-04-16T11:39:08.357Z,38.50
2019-04-16T11:41:13.141Z,39.40
2019-04-16T11:43:19.853Z,39.80
2019-04-16T11:45:25.038Z,39.90
2019-04-16T11:47:33.853Z,39.20
2019-04-16T11:49:36.304Z,39.70
2019-04-16T11:51:41.902Z,39.60
2019-04-16T11:53:49.726Z,38.80
2019-04-16T11:55:56.717Z,39.00
2019-04-16T11:58:01.935Z,38.50
2019-04-16T12:00:20.908Z,40.40
2019-04-16T12:02:27.595Z,39.20
2019-04-16T12:04:44.336Z,38.80
2019-04-16T12:07:10.357Z,38.50
2019-04-16T12:09:17.793Z,37.00
2019-04-16T12:11:30.172Z,37.10
2019-04-16T12:13:36.881Z,38.00
2019-04-16T12:15:46.671Z,38.90
2019-04-16T12:17:56.707Z,37.90
2019-04-16T12:20:20.029Z,38.60
2019-04-16T12:22:30.110Z,37.90
2019-04-16T12:24:41.037Z,39.60
2019-04-16T12:27:05.413Z,38.30
2019-04-16T12:29:23.076Z,38.20
2019-04-16T12:31:35.896Z,37.80
2019-04-16T12:33:54.821Z,37.40
2019-04-16T12:36:07.042Z,37.50
2019-04-16T12:38:18.895Z,37.50
2019-04-16T12:40:42.128Z,37.30
2019-04-16T12:42:56.068Z,38.60
2019-04-16T12:45:21.129Z,38.90
2019-04-16T12:47:36.205Z,37.40
2019-04-16T12:50:00.146Z,37.30
2019-04-16T12:52:09.042Z,35.60
2019-04-16T12:54:37.619Z,35.50
2019-04-16T12:56:46.779Z,35.50
2019-04-16T12:58:55.533Z,36.20
2019-04-16T13:01:06.755Z,36.60
2019-04-16T13:03:31.578Z,36.00
2019-04-16T13:05:46.285Z,35.90
2019-04-16T13:08:11.997Z,34.70
2019-04-16T13:10:21.101Z,35.00
2019-04-16T13:12:46.392Z,35.90
2019-04-16T13:15:04.284Z,36.60
2019-04-16T13:17:19.386Z,35.20
2019-04-16T13:19:33.371Z,34.30
2019-04-16T13:21:44.481Z,35.40
2019-04-16T13:23:49.718Z,35.10
2019-04-16T13:25:54.930Z,35.10
2019-04-16T13:27:58.536Z,35.30
2019-04-16T13:30:02.942Z,35.60
2019-04-16T13:32:05.832Z,34.70
2019-04-16T13:34:15.599Z,35.40
2019-04-16T13:36:26.493Z,34.70
2019-04-16T13:38:31.483Z,34.60
2019-04-16T13:40:41.445Z,34.70
2019-04-16T13:42:47.939Z,33.70
2019-04-16T13:44:56.509Z,33.90
2019-04-16T13:47:03.944Z,33.40
2019-04-16T13:49:24.749Z,33.00
2019-04-16T13:51:36.016Z,32.20
2019-04-16T13:53:45.075Z,32.80
2019-04-16T13:56:09.849Z,31.30
2019-04-16T13:58:33.794Z,32.20
2019-04-16T14:00:46.795Z,32.80
2019-04-16T14:02:57.419Z,31.30
2019-04-16T14:05:05.151Z,31.00
2019-04-16T14:07:12.216Z,31.30
2019-04-16T14:09:18.808Z,31.20
2019-04-16T14:11:29.003Z,30.30
2019-04-16T14:13:32.979Z,30.80
2019-04-16T14:15:40.560Z,31.20
2019-04-16T14:17:53.118Z,30.30
2019-04-16T14:19:56.114Z,29.90
2019-04-16T14:22:06.710Z,30.40
2019-04-16T14:24:14.788Z,31.90
2019-04-16T14:26:22.053Z,30.40
2019-04-16T14:28:34.266Z,30.10
2019-04-16T14:30:42.250Z,30.60
2019-04-16T14:32:48.089Z,29.20
2019-04-16T14:34:56.760Z,29.60
2019-04-16T14:37:04.354Z,29.20
2019-04-16T14:39:16.789Z,28.70
2019-04-16T14:41:24.261Z,28.90
2019-04-16T14:43:33.373Z,27.90
2019-04-16T14:45:56.984Z,28.30
2019-04-16T14:47:50.656Z,29.10
2019-04-16T14:49:58.109Z,28.50
2019-04-16T14:52:06.055Z,28.50
2019-04-16T14:54:26.935Z,28.90
2019-04-16T14:56:35.397Z,28.70
2019-04-16T14:58:46.957Z,27.90
2019-04-16T15:01:00.952Z,27.80
2019-04-16T15:03:08.539Z,27.80
2019-04-16T15:05:17.062Z,27.90
2019-04-16T15:07:34.614Z,27.90
2019-04-16T15:09:43.410Z,28.00
2019-04-16T15:12:08.717Z,28.20
2019-04-16T15:14:20.282Z,27.70
2019-04-16T15:16:37.263Z,27.10
2019-04-16T15:18:48.697Z,26.60
2019-04-16T15:20:56.974Z,27.00
2019-04-16T15:23:08.046Z,27.20
2019-04-16T15:25:32.019Z,27.30
2019-04-16T15:27:40.853Z,27.30
2019-04-16T15:30:04.516Z,26.50
2019-04-16T15:32:28.937Z,26.80
2019-04-16T15:34:42.772Z,27.50
2019-04-16T15:36:50.473Z,26.40
2019-04-16T15:39:04.056Z,26.30
2019-04-16T15:41:18.866Z,25.60
2019-04-16T15:43:33.004Z,25.70
2019-04-16T15:45:50.128Z,25.80
2019-04-16T15:48:11.046Z,25.60
2019-04-16T15:50:25.964Z,25.90
2019-04-16T15:52:40.666Z,25.50
2019-04-16T15:54:49.158Z,25.60
2019-04-16T15:57:00.462Z,25.40
2019-04-16T15:59:07.026Z,26.10
2019-04-16T16:01:21.070Z,24.70
2019-04-16T16:03:29.148Z,24.80
2019-04-16T16:05:39.483Z,25.20
2019-04-16T16:07:47.997Z,24.60
2019-04-16T16:09:57.526Z,24.80
2019-04-16T16:12:04.084Z,24.20
2019-04-16T16:14:10.936Z,24.30
2019-04-16T16:16:17.952Z,24.60
2019-04-16T16:18:21.126Z,25.30
2019-04-16T16:20:26.080Z,25.30
2019-04-16T16:22:33.357Z,25.80
2019-04-16T16:24:41.946Z,25.90
2019-04-16T16:26:46.908Z,26.70
2019-04-16T16:28:52.497Z,26.80
2019-04-16T16:30:58.167Z,26.80
2019-04-16T16:33:03.711Z,27.00
2019-04-16T16:35:10.379Z,27.10
2019-04-16T16:37:15.638Z,27.40
2019-04-16T16:39:21.439Z,27.60
2019-04-16T16:41:26.319Z,27.80
2019-04-16T16:43:33.832Z,28.10
2019-04-16T16:45:41.595Z,28.40
2019-04-16T16:47:51.137Z,28.30
2019-04-16T16:49:57.707Z,28.40
2019-04-16T16:52:24.819Z,29.30
2019-04-16T16:54:31.039Z,29.50
2019-04-16T16:56:41.648Z,29.60
2019-04-16T16:58:55.250Z,30.20
2019-04-16T17:01:01.682Z,31.00
2019-04-16T17:03:12.828Z,31.90
2019-04-16T17:05:18.067Z,31.60
2019-04-16T17:07:21.636Z,32.60
2019-04-16T17:09:29.691Z,33.60
2019-04-16T17:11:32.420Z,33.50
2019-04-16T17:13:35.235Z,34.70
2019-04-16T17:15:39.199Z,34.90
2019-04-16T17:17:42.765Z,35.40
2019-04-16T17:19:45.621Z,34.80
2019-04-16T17:21:49.210Z,36.00
2019-04-16T17:23:52.796Z,36.20
2019-04-16T17:25:58.639Z,36.40
2019-04-16T17:28:05.016Z,36.50
2019-04-16T17:30:13.436Z,36.60
2019-04-16T17:32:17.221Z,37.00
2019-04-16T17:34:21.461Z,37.30
2019-04-16T17:36:25.036Z,37.80
2019-04-16T17:38:28.770Z,37.90
2019-04-16T17:40:51.158Z,38.50
2019-04-16T17:42:57.206Z,38.90
2019-04-16T17:45:02.494Z,39.00
2019-04-16T17:47:10.589Z,40.00
2019-04-16T17:49:22.013Z,40.10
2019-04-16T17:51:29.868Z,40.10
2019-04-16T17:53:40.854Z,40.80
2019-04-16T17:56:02.571Z,41.30
2019-04-16T17:58:07.880Z,41.40
2019-04-16T18:00:16.128Z,41.20
2019-04-16T18:02:38.147Z,42.00
2019-04-16T18:04:44.791Z,41.90
2019-04-16T18:06:50.299Z,42.50
2019-04-16T18:09:10.556Z,43.20
2019-04-16T18:11:18.763Z,42.50
2019-04-16T18:13:31.863Z,42.90
2019-04-16T18:15:43.459Z,42.70
2019-04-16T18:17:48.993Z,42.70
2019-04-16T18:19:54.202Z,43.10
2019-04-16T18:22:06.117Z,42.80
2019-04-16T18:24:11.628Z,43.40
2019-04-16T18:26:32.977Z,44.10
2019-04-16T18:28:38.212Z,44.20
2019-04-16T18:30:49.464Z,44.60
2019-04-16T18:33:14.644Z,45.20
2019-04-16T18:35:20.624Z,45.10
2019-04-16T18:37:34.987Z,45.60
2019-04-16T18:39:40.431Z,45.70
2019-04-16T18:41:45.767Z,46.40
2019-04-16T18:43:53.832Z,45.50
2019-04-16T18:46:15.354Z,46.40
2019-04-16T18:48:26.914Z,46.70
2019-04-16T18:50:30.926Z,47.00
2019-04-16T18:52:36.607Z,47.50
2019-04-16T18:54:39.941Z,47.40
2019-04-16T18:56:42.732Z,47.90
2019-04-16T18:58:46.300Z,48.10
2019-04-16T19:00:55.146Z,48.10
2019-04-16T19:03:02.329Z,48.50
2019-04-16T19:05:10.599Z,49.00
2019-04-16T19:07:17.446Z,49.10
2019-04-16T19:09:21.376Z,49.00
2019-04-16T19:11:26.468Z,49.20
2019-04-16T19:13:32.784Z,49.10
2019-04-16T19:15:38.555Z,49.20
2019-04-16T19:17:44.237Z,49.10
2019-04-16T19:19:51.212Z,48.90
2019-04-16T19:21:58.532Z,49.30
2019-04-16T19:24:02.092Z,48.90
2019-04-16T19:26:05.277Z,48.90
2019-04-16T19:28:08.898Z,49.10
2019-04-16T19:30:12.131Z,49.20
2019-04-16T19:32:15.755Z,49.50
2019-04-16T19:34:23.322Z,49.80
2019-04-16T19:36:28.531Z,49.90
2019-04-16T19:38:32.102Z,50.00
2019-04-16T19:40:34.905Z,50.50
2019-04-16T19:42:38.506Z,50.60
2019-04-16T19:44:41.399Z,50.80
2019-04-16T19:46:52.411Z,50.90
2019-04-16T19:48:51.457Z,51.10
2019-04-16T19:50:54.303Z,51.00
2019-04-16T19:52:58.019Z,51.50
2019-04-16T19:55:01.585Z,51.20
2019-04-16T19:57:04.585Z,51.00
2019-04-16T19:59:08.199Z,51.30
2019-04-16T20:01:12.179Z,51.50
2019-04-16T20:03:16.086Z,51.40
2019-04-16T20:05:19.664Z,51.20
2019-04-16T20:07:22.490Z,51.60
2019-04-16T20:09:26.141Z,51.30
2019-04-16T20:11:29.006Z,51.10
2019-04-16T20:13:32.593Z,52.00
2019-04-16T20:15:35.424Z,51.60
2019-04-16T20:17:39.198Z,52.10
2019-04-16T20:19:58.480Z,52.00
2019-04-16T20:22:02.183Z,51.90
2019-04-16T20:24:05.810Z,52.00
2019-04-16T20:26:08.614Z,51.50
2019-04-16T20:28:15.359Z,52.20
2019-04-16T20:30:23.101Z,51.80
2019-04-16T20:32:23.946Z,51.90
2019-04-16T20:34:28.744Z,51.70
2019-04-16T20:36:32.309Z,52.00
2019-04-16T20:38:35.107Z,51.90
2019-04-16T20:40:38.985Z,52.60
2019-04-16T20:42:42.764Z,52.80
2019-04-16T20:44:46.318Z,52.60
2019-04-16T20:46:49.111Z,52.10
2019-04-16T20:49:06.551Z,52.90
2019-04-16T20:50:59.526Z,52.90
2019-04-16T20:53:06.251Z,53.00
2019-04-16T20:55:09.830Z,53.10
2019-04-16T20:57:13.498Z,53.40
2019-04-16T20:59:17.081Z,53.70
2019-04-16T21:01:32.760Z,54.20
2019-04-16T21:03:25.576Z,53.90
2019-04-16T21:05:29.320Z,54.30
2019-04-16T21:07:33.283Z,54.20
2019-04-16T21:09:36.886Z,54.40
2019-04-16T21:11:41.166Z,54.50
2019-04-16T21:13:46.986Z,54.30
2019-04-16T21:15:50.383Z,54.50
2019-04-16T21:17:53.980Z,55.10
2019-04-16T21:19:56.768Z,55.20
2019-04-16T21:22:01.696Z,55.00
2019-04-16T21:24:07.770Z,55.20
2019-04-16T21:26:10.983Z,55.20
2019-04-16T21:28:32.025Z,55.60
2019-04-16T21:30:35.671Z,55.40
2019-04-16T21:32:56.442Z,55.50
2019-04-16T21:35:07.567Z,55.80
2019-04-16T21:37:29.118Z,55.80
2019-04-16T21:39:39.884Z,56.40
2019-04-16T21:41:43.501Z,56.10
2019-04-16T21:43:46.527Z,56.30
2019-04-16T21:45:50.097Z,56.40
2019-04-16T21:47:55.160Z,56.30
2019-04-16T21:49:58.224Z,56.50
2019-04-16T21:52:07.980Z,56.90
2019-04-16T21:54:11.733Z,57.20
2019-04-16T21:56:14.541Z,57.00
2019-04-16T21:58:18.409Z,57.10
2019-04-16T22:00:38.978Z,57.60
2019-04-16T22:02:42.939Z,58.40
2019-04-16T22:04:46.823Z,58.60
2019-04-16T22:06:52.623Z,58.80
2019-04-16T22:08:58.860Z,58.90
2019-04-16T22:11:01.344Z,59.00
2019-04-16T22:13:04.300Z,59.40
2019-04-16T22:15:08.519Z,59.90
2019-04-16T22:17:12.116Z,60.00
2019-04-16T22:19:15.064Z,60.00
2019-04-16T22:21:18.689Z,60.40
2019-04-16T22:23:21.457Z,61.20
2019-04-16T22:25:26.779Z,61.20
2019-04-16T22:27:30.301Z,62.70
2019-04-16T22:29:33.101Z,62.10
2019-04-16T22:31:36.711Z,62.30
2019-04-16T22:33:39.505Z,62.60
2019-04-16T22:35:43.230Z,63.00
2019-04-16T22:37:46.837Z,63.90
2019-04-16T22:39:51.951Z,64.20
2019-04-16T22:42:03.219Z,64.60
2019-04-16T22:44:11.095Z,65.00
2019-04-16T22:46:16.310Z,65.60
2019-04-16T22:48:19.877Z,65.40
2019-04-16T22:50:22.701Z,66.70
2019-04-16T22:52:26.308Z,67.40
2019-04-16T22:54:29.096Z,67.70
2019-04-16T22:56:34.354Z,68.60
2019-04-16T22:58:47.550Z,69.00
2019-04-16T23:00:57.584Z,69.50
2019-04-16T23:03:01.321Z,70.20
2019-04-16T23:05:06.267Z,70.80
2019-04-16T23:07:09.835Z,71.60
2019-04-16T23:09:16.706Z,71.20
2019-04-16T23:11:17.936Z,71.80
2019-04-16T23:13:23.068Z,71.60
2019-04-16T23:15:25.856Z,72.10
2019-04-16T23:17:29.473Z,72.90
2019-04-16T23:19:32.269Z,73.70
2019-04-16T23:21:35.856Z,74.40
2019-04-16T23:23:38.657Z,74.60
2019-04-16T23:25:42.224Z,75.40
2019-04-16T23:27:45.018Z,76.30
2019-04-16T23:29:48.616Z,77.80
2019-04-16T23:31:55.063Z,78.20
2019-04-16T23:33:56.616Z,79.00
2019-04-16T23:35:59.649Z,79.10
2019-04-16T23:38:03.228Z,80.00
2019-04-16T23:40:07.491Z,80.40
2019-04-16T23:42:11.405Z,80.30
2019-04-16T23:44:25.794Z,81.00
2019-04-16T23:46:48.200Z,81.00
2019-04-16T23:49:02.460Z,81.30
2019-04-16T23:51:10.214Z,81.90
2019-04-16T23:53:21.298Z,82.70
2019-04-16T23:55:41.913Z,83.50
2019-04-16T23:58:05.168Z,83.60
